Defeated, Tennessee
Current Conditions -  °F | °C
As of 7:35 PM on Wednesday 26 Nov 2014 (Local Time) from KSRB Reporting Station
Overcast Overcast  
Wind Chill: 38°   Ceiling: 2000
Heat Index: 41°   Visibility: 10mi
Dew Point: 37°   Wind: 5mph
Humidity: 87%   Direction: 250°WSW
Pressure: 30.02"   Gusts: NA
Location:  36.2454°N, 86.0046°W
Report Text: KSRB 270135Z AUTO 25004KT 10SM OVC020 05/03 A3002 RMK
Loading
Personal Weather Stations






























Interactive Weather Map New forecast layout! Learn more

10-Day Weather Forecast

Advertisements
Track Severe Weather on mobile